This is the latest recevied weather packets stored in our database for station/object OK1JIL-13. If no packets are shown the sender has not sent any weather packets the latest 10 day(s).
| Time | Temp. | Humidity | Pressure | Rain* | Wind** | Luminosity | Snow |
|---|---|---|---|---|---|---|---|
| 1777618397 | 12.78° C | 36% | 1029.3 hPa | - | - | - | - |
| 1777617797 | 15° C | 33% | 1029.2 hPa | - | - | - | - |
| 1777617197 | 13.89° C | 36% | 1029.2 hPa | - | - | - | - |
| 1777616597 | 12.22° C | 39% | 1029.2 hPa | - | - | - | - |
| 1777615997 | 15° C | 37% | 1029.2 hPa | - | - | - | - |
| 1777615397 | 12.22° C | 39% | 1029.1 hPa | - | - | - | - |
| 1777614797 | 13.33° C | 36% | 1029.1 hPa | - | - | - | - |
| 1777614197 | 11.11° C | 43% | 1029.1 hPa | - | - | - | - |
| 1777613597 | 12.22° C | 41% | 1029.1 hPa | - | - | - | - |
| 1777612997 | 12.22° C | 40% | 1028.9 hPa | - | - | - | - |
| 1777612397 | 11.67° C | 43% | 1028.9 hPa | - | - | - | - |
| 1777611797 | 11.67° C | 42% | 1029 hPa | - | - | - | - |
| 1777611197 | 11.11° C | 44% | 1028.9 hPa | - | - | - | - |
| 1777610597 | 10° C | 44% | 1028.9 hPa | - | - | - | - |
| 1777609997 | 10° C | 46% | 1028.9 hPa | - | - | - | - |
| 1777609397 | 11.67° C | 41% | 1028.9 hPa | - | - | - | - |
| 1777608797 | 10° C | 46% | 1029 hPa | - | - | - | - |
| 1777608197 | 9.44° C | 49% | 1029 hPa | - | - | - | - |
| 1777607597 | 8.33° C | 51% | 1028.8 hPa | - | - | - | - |
| 1777606997 | 8.33° C | 52% | 1028.9 hPa | - | - | - | - |
| 1777606397 | 8.33° C | 53% | 1028.9 hPa | - | - | - | - |
| 1777605797 | 8.33° C | 52% | 1029 hPa | - | - | - | - |
| 1777605197 | 9.44° C | 49% | 1028.8 hPa | - | - | - | - |
| 1777604597 | 8.33° C | 51% | 1028.9 hPa | - | - | - | - |
| 1777603997 | 8.89° C | 51% | 1028.8 hPa | - | - | - | - |
* Rain since midnight (hover to see other rain measurements)
** Current wind speed in m/s (hover to see current wind gust speed)